Time;durP1;ratioP1;P1;durP2;ratioP2;P2;SDS_P1;SDS_P2;PMS_P1;PMS_P2;Temp;Humidity;BMP_temperature;BMP_pressure;BME280_temperature;BME280_humidity;BME280_pressure;Samples;Min_cycle;Max_cycle;Signal;HPM_P1;HPM_P2
2022/07/24 00:00:23;;;;;;;9.90;8.90;;;;;;;18.34;85.17;101263.31;5043863;28;20097;-79
2022/07/24 00:02:49;;;;;;;9.90;8.85;;;;;;;18.31;84.92;101258.38;5042360;28;20087;-78
2022/07/24 00:05:18;;;;;;;10.52;8.35;;;;;;;18.36;86.02;101255.16;5043964;28;20057;-79
2022/07/24 00:07:44;;;;;;;13.07;9.38;;;;;;;18.32;85.54;101259.19;5044711;28;20045;-79
2022/07/24 00:10:12;;;;;;;11.00;9.07;;;;;;;18.31;85.37;101255.72;5049592;28;20063;-80
2022/07/24 00:12:39;;;;;;;12.27;9.55;;;;;;;18.24;85.76;101262.81;5051072;28;20056;-79
2022/07/24 00:15:07;;;;;;;12.35;9.40;;;;;;;18.16;86.29;101257.63;5044162;28;20262;-81
2022/07/24 00:17:37;;;;;;;10.73;9.63;;;;;;;18.18;87.87;101263.56;5032074;28;20068;-81
2022/07/24 00:20:05;;;;;;;13.30;9.70;;;;;;;18.17;87.85;101260.09;5033660;28;20053;-80
2022/07/24 00:22:34;;;;;;;16.10;10.10;;;;;;;18.08;88.37;101258.56;5038177;28;20059;-80
2022/07/24 00:25:01;;;;;;;11.60;10.40;;;;;;;18.09;87.62;101257.56;5053878;28;20087;-80
2022/07/24 00:27:38;;;;;;;14.93;10.88;;;;;;;17.97;88.60;101264.38;5053380;28;20109;-81
2022/07/24 00:30:06;;;;;;;14.18;10.93;;;;;;;17.97;89.40;101267.00;5051560;28;20053;-81
2022/07/24 00:32:33;;;;;;;12.02;10.35;;;;;;;18.02;89.42;101258.50;5051210;28;20053;-81
2022/07/24 00:35:09;;;;;;;15.73;11.00;;;;;;;18.05;89.83;101269.53;5050302;28;20136;-82
2022/07/24 00:37:37;;;;;;;12.50;10.52;;;;;;;17.89;89.98;101248.63;5050561;28;20264;-80
2022/07/24 00:40:05;;;;;;;13.45;10.18;;;;;;;18.04;89.88;101261.78;5050605;28;20079;-80
2022/07/24 00:42:31;;;;;;;13.75;10.55;;;;;;;18.04;89.61;101257.31;5050636;28;20041;-80
2022/07/24 00:44:58;;;;;;;12.73;10.88;;;;;;;17.97;89.17;101248.47;5050269;28;20579;-79
2022/07/24 00:47:25;;;;;;;13.57;10.73;;;;;;;17.91;89.52;101249.25;5048249;28;20045;-80
2022/07/24 00:49:51;;;;;;;14.40;10.98;;;;;;;17.91;90.26;101259.84;5049055;28;20053;-80
2022/07/24 00:52:18;;;;;;;13.48;10.98;;;;;;;17.83;89.86;101250.22;5048372;28;20045;-80
2022/07/24 00:54:46;;;;;;;13.55;10.43;;;;;;;17.77;90.58;101256.25;5048805;28;20076;-79
2022/07/24 00:57:13;;;;;;;15.15;12.18;;;;;;;17.66;90.93;101254.09;5049809;28;20419;-80
2022/07/24 00:59:40;;;;;;;15.25;11.05;;;;;;;17.73;91.05;101264.75;5047830;28;20042;-80
2022/07/24 01:02:09;;;;;;;16.00;11.40;;;;;;;17.73;91.68;101256.81;5049366;28;20104;-80
2022/07/24 01:04:36;;;;;;;16.50;11.95;;;;;;;17.75;91.06;101254.78;5047325;28;20054;-80
2022/07/24 01:07:03;;;;;;;13.27;11.88;;;;;;;17.78;90.78;101259.72;5041107;28;20076;-81
2022/07/24 01:09:30;;;;;;;14.75;12.10;;;;;;;17.66;90.84;101245.31;5050340;28;20049;-81
2022/07/24 01:12:07;;;;;;;17.40;12.93;;;;;;;17.68;91.02;101261.84;5050386;28;20069;-81
2022/07/24 01:14:43;;;;;;;15.82;12.55;;;;;;;17.69;91.50;101258.19;5050126;28;20041;-81
2022/07/24 01:17:13;;;;;;;17.20;13.45;;;;;;;17.56;91.29;101243.75;5051226;28;20050;-80
2022/07/24 01:19:40;;;;;;;15.88;12.07;;;;;;;17.57;91.50;101250.69;5050069;28;20177;-81
2022/07/24 01:22:08;;;;;;;15.93;12.00;;;;;;;17.58;91.59;101254.97;5050088;28;20053;-81
2022/07/24 01:24:39;;;;;;;16.48;13.10;;;;;;;17.58;91.46;101256.81;5051207;28;20042;-81
2022/07/24 01:27:07;;;;;;;17.98;13.25;;;;;;;17.58;91.09;101254.97;5051042;28;20046;-81
2022/07/24 01:29:36;;;;;;;15.55;12.60;;;;;;;17.50;91.40;101257.75;5048172;28;20115;-80
2022/07/24 01:32:03;;;;;;;19.30;13.15;;;;;;;17.52;91.44;101262.84;5049295;28;20057;-80
2022/07/24 01:34:30;;;;;;;15.20;12.50;;;;;;;17.45;91.81;101254.84;5049653;28;20045;-79
2022/07/24 01:36:58;;;;;;;19.42;13.23;;;;;;;17.37;92.20;101257.59;5049858;28;20107;-79
2022/07/24 01:39:28;;;;;;;18.02;12.50;;;;;;;17.33;92.44;101258.16;5049482;28;20057;-79
2022/07/24 01:41:55;;;;;;;18.45;13.48;;;;;;;17.14;92.82;101238.38;5049758;28;20064;-79
2022/07/24 01:44:28;;;;;;;16.75;13.70;;;;;;;17.21;93.05;101260.44;5050899;28;20113;-79
2022/07/24 01:46:55;;;;;;;19.52;14.02;;;;;;;17.17;93.42;101240.66;5048843;28;20053;-79
2022/07/24 01:49:22;;;;;;;16.92;14.13;;;;;;;17.04;93.44;101232.53;5046733;28;20146;-79
2022/07/24 01:51:49;;;;;;;17.90;14.35;;;;;;;17.16;93.50;101250.41;5046572;28;20079;-79
2022/07/24 01:54:28;;;;;;;21.17;15.18;;;;;;;17.06;93.62;101235.81;5044416;28;20057;-80
2022/07/24 01:57:16;;;;;;;15.77;13.55;;;;;;;17.11;93.55;101217.59;5042229;28;20058;-80
2022/07/24 01:59:59;;;;;;;18.38;14.60;;;;;;;17.04;94.07;101230.72;5043584;28;20054;-79
2022/07/24 02:02:31;;;;;;;16.08;13.65;;;;;;;16.92;94.26;101209.25;5043772;28;20145;-80
2022/07/24 02:04:59;;;;;;;16.38;13.27;;;;;;;17.04;94.44;101229.91;5048926;28;20057;-80
2022/07/24 02:07:40;;;;;;;16.98;13.85;;;;;;;16.93;94.49;101215.34;5048629;28;20052;-78
2022/07/24 02:10:23;;;;;;;18.23;13.70;;;;;;;17.04;94.54;101227.25;5042859;28;20053;-80
2022/07/24 02:12:51;;;;;;;18.10;13.75;;;;;;;16.96;94.82;101208.88;5039287;28;20514;-79
2022/07/24 02:15:18;;;;;;;16.35;14.60;;;;;;;16.99;94.87;101219.09;5039704;28;20054;-80
2022/07/24 02:17:47;;;;;;;22.02;14.45;;;;;;;17.04;95.19;101227.25;5041174;28;20076;-80
2022/07/24 02:20:14;;;;;;;19.80;14.55;;;;;;;17.00;95.34;101220.72;5040903;28;20056;-78
2022/07/24 02:22:40;;;;;;;18.25;14.90;;;;;;;16.98;95.63;101218.25;5039966;28;20080;-78
2022/07/24 02:25:08;;;;;;;17.30;15.48;;;;;;;16.87;95.58;101214.25;5039968;28;20148;-80
2022/07/24 02:27:35;;;;;;;16.80;14.20;;;;;;;16.89;95.94;101214.06;5046309;28;20042;-79
2022/07/24 02:30:04;;;;;;;18.27;14.45;;;;;;;16.82;96.09;101200.75;5048037;28;20058;-80
2022/07/24 02:32:32;;;;;;;18.85;15.27;;;;;;;16.88;96.41;101200.03;5052912;28;20131;-80
2022/07/24 02:34:59;;;;;;;19.17;14.52;;;;;;;16.79;96.53;101198.47;5053611;28;20128;-80
2022/07/24 02:37:31;;;;;;;20.00;14.60;;;;;;;16.71;96.91;101180.06;5052691;28;20053;-79
2022/07/24 02:39:58;;;;;;;17.02;15.23;;;;;;;16.72;96.75;101181.72;5052763;28;20060;-80
2022/07/24 02:42:25;;;;;;;18.80;14.35;;;;;;;16.76;96.98;101192.75;5052396;28;20057;-79
2022/07/24 02:44:52;;;;;;;19.80;15.65;;;;;;;16.82;97.06;101218.44;5055100;28;20056;-80
2022/07/24 02:47:20;;;;;;;16.75;15.00;;;;;;;16.83;96.96;101207.69;5054386;28;20045;-79
2022/07/24 02:49:47;;;;;;;19.38;15.07;;;;;;;16.82;96.85;101206.06;5052402;28;20065;-80
2022/07/24 02:52:14;;;;;;;18.85;15.32;;;;;;;16.83;96.75;101212.16;5054493;28;20049;-81
2022/07/24 02:54:41;;;;;;;18.60;15.77;;;;;;;16.82;96.82;101208.69;5055074;28;20053;-81
2022/07/24 02:57:08;;;;;;;17.40;15.45;;;;;;;16.78;97.28;101211.88;5053298;28;20083;-80
2022/07/24 02:59:34;;;;;;;18.73;14.98;;;;;;;16.73;97.35;101199.22;5051617;28;20045;-80
2022/07/24 03:02:01;;;;;;;17.10;15.27;;;;;;;16.75;97.54;101206.97;5051954;28;20072;-79
2022/07/24 03:04:29;;;;;;;25.42;16.27;;;;;;;16.67;97.57;101205.22;5050573;28;20092;-79
2022/07/24 03:06:56;;;;;;;17.90;16.02;;;;;;;16.64;97.84;101189.72;5050901;28;20076;-79
2022/07/24 03:09:22;;;;;;;19.20;15.88;;;;;;;16.62;97.94;101204.91;5050601;28;20045;-79
2022/07/24 03:11:52;;;;;;;18.60;15.90;;;;;;;16.65;97.87;101201.94;5050390;28;20048;-80
2022/07/24 03:14:18;;;;;;;17.52;15.50;;;;;;;16.57;98.05;101199.34;5052944;28;20140;-80
2022/07/24 03:16:45;;;;;;;18.27;16.13;;;;;;;16.57;98.02;101194.88;5048649;28;20125;-79
2022/07/24 03:19:12;;;;;;;20.20;15.95;;;;;;;16.50;98.12;101188.72;5049372;28;20394;-79
2022/07/24 03:21:40;;;;;;;19.27;16.90;;;;;;;16.50;98.18;101198.47;5049260;28;20045;-80
2022/07/24 03:24:07;;;;;;;20.15;16.05;;;;;;;16.50;98.43;101203.75;5053102;28;20045;-79
2022/07/24 03:26:33;;;;;;;19.30;16.05;;;;;;;16.42;98.73;101202.00;5045320;28;20555;-79
2022/07/24 03:29:00;;;;;;;17.17;14.88;;;;;;;16.39;98.91;101199.72;5028253;28;20454;-79
2022/07/24 03:31:27;;;;;;;17.65;15.63;;;;;;;16.35;99.05;101187.88;5029216;28;20072;-78
2022/07/24 03:33:53;;;;;;;17.90;15.75;;;;;;;16.32;99.41;101198.78;5027971;28;20073;-79
2022/07/24 03:36:20;;;;;;;18.48;16.58;;;;;;;16.32;99.64;101205.88;5038386;28;20045;-79
2022/07/24 03:38:48;;;;;;;20.48;16.42;;;;;;;16.34;99.68;101203.88;5049758;28;20064;-80
2022/07/24 03:41:15;;;;;;;18.95;16.35;;;;;;;16.30;99.88;101194.69;5050199;28;20367;-78
2022/07/24 03:43:43;;;;;;;18.10;16.08;;;;;;;16.30;100.00;101197.31;5050203;28;20057;-79
2022/07/24 03:46:19;;;;;;;23.33;17.25;;;;;;;16.40;100.00;101211.09;5051922;28;20084;-81
2022/07/24 03:48:46;;;;;;;17.90;16.10;;;;;;;16.30;100.00;101177.03;5046942;28;20103;-79
2022/07/24 03:51:13;;;;;;;17.20;15.30;;;;;;;16.39;100.00;101204.19;5044830;28;20087;-78
2022/07/24 03:53:39;;;;;;;19.35;15.45;;;;;;;16.36;99.91;101208.00;5049252;28;20058;-78
2022/07/24 03:56:09;;;;;;;20.75;15.88;;;;;;;16.41;100.00;101215.38;5049767;28;20052;-80
2022/07/24 03:58:36;;;;;;;18.83;16.50;;;;;;;16.30;99.78;101202.59;5049798;28;20049;-79
2022/07/24 04:01:03;;;;;;;17.73;15.88;;;;;;;16.29;99.77;101208.88;5049692;28;20068;-79
2022/07/24 04:03:30;;;;;;;19.63;16.33;;;;;;;16.31;99.77;101217.44;5050803;28;20049;-79
2022/07/24 04:05:57;;;;;;;17.67;15.77;;;;;;;16.34;99.71;101214.44;5049813;28;20045;-81
2022/07/24 04:08:23;;;;;;;19.50;16.40;;;;;;;16.41;99.23;101220.66;5050565;28;20052;-80
2022/07/24 04:10:56;;;;;;;20.40;16.92;;;;;;;16.43;99.25;101213.38;5050970;28;20072;-81
2022/07/24 04:13:24;;;;;;;21.45;16.25;;;;;;;16.67;98.43;101214.97;5049736;28;20489;-81
2022/07/24 04:15:51;;;;;;;16.98;15.25;;;;;;;16.81;97.24;101211.50;5049722;28;20049;-80
2022/07/24 04:18:17;;;;;;;21.35;15.90;;;;;;;16.85;96.93;101221.53;5048810;28;20067;-80
2022/07/24 04:20:47;;;;;;;17.10;15.20;;;;;;;17.17;95.76;101211.56;5049266;28;20053;-79
2022/07/24 04:23:14;;;;;;;18.92;14.68;;;;;;;17.12;95.16;101204.19;5050649;28;20045;-80
2022/07/24 04:25:40;;;;;;;17.83;15.07;;;;;;;17.16;95.45;101208.09;5051175;28;20501;-80
2022/07/24 04:28:07;;;;;;;17.55;14.50;;;;;;;17.09;95.73;101211.66;5049234;28;20034;-80
2022/07/24 04:30:36;;;;;;;21.48;14.80;;;;;;;16.87;96.70;101219.53;5049872;28;20072;-80
2022/07/24 04:33:03;;;;;;;19.42;15.30;;;;;;;16.87;97.00;101216.91;5048390;28;20053;-79
2022/07/24 04:35:31;;;;;;;22.63;15.93;;;;;;;16.86;97.23;101212.63;5048001;28;20057;-80
2022/07/24 04:37:57;;;;;;;20.73;15.63;;;;;;;16.91;96.75;101204.97;5046400;28;20072;-81
2022/07/24 04:40:24;;;;;;;17.58;15.65;;;;;;;17.08;96.63;101216.13;5046221;28;20552;-81
2022/07/24 04:42:51;;;;;;;16.40;14.80;;;;;;;16.91;96.25;101186.44;5075617;23;20532;-79
2022/07/24 04:45:17;;;;;;;17.02;15.23;;;;;;;17.14;96.23;101211.94;5052214;28;20044;-78
2022/07/24 04:47:45;;;;;;;20.83;14.93;;;;;;;17.24;96.06;101205.34;5053027;28;20080;-78
2022/07/24 04:50:12;;;;;;;19.02;15.35;;;;;;;17.16;95.95;101205.47;5052864;28;20108;-78
2022/07/24 04:52:39;;;;;;;17.80;16.00;;;;;;;17.30;94.98;101203.81;5051980;28;20125;-78
2022/07/24 04:55:06;;;;;;;16.98;14.18;;;;;;;17.43;94.13;101206.59;5066001;28;20060;-81
2022/07/24 04:57:39;;;;;;;20.05;15.00;;;;;;;17.67;93.78;101197.50;5064531;28;20070;-78
2022/07/24 05:00:08;;;;;;;17.40;15.40;;;;;;;17.77;92.46;101207.78;5063808;28;20072;-79
2022/07/24 05:02:35;;;;;;;16.85;14.43;;;;;;;17.74;92.82;101208.16;5062890;28;20056;-79
2022/07/24 05:05:04;;;;;;;18.13;14.30;;;;;;;17.69;92.93;101208.72;5061055;28;20071;-80
2022/07/24 05:07:30;;;;;;;18.55;14.18;;;;;;;17.74;92.41;101197.56;5056329;28;20107;-79
2022/07/24 05:09:57;;;;;;;16.48;14.25;;;;;;;17.96;91.80;101207.13;5053510;28;20076;-80
2022/07/24 05:12:32;;;;;;;15.63;14.00;;;;;;;18.44;89.71;101200.16;5063283;28;20088;-78
2022/07/24 05:14:59;;;;;;;16.30;13.25;;;;;;;18.48;88.77;101208.53;5058635;28;20072;-79
2022/07/24 05:17:25;;;;;;;14.63;12.57;;;;;;;19.07;86.12;101211.56;5042167;28;20049;-79
2022/07/24 05:19:52;;;;;;;14.95;13.13;;;;;;;18.76;87.00;101205.91;5041551;28;20080;-81
2022/07/24 05:22:20;;;;;;;14.77;13.27;;;;;;;18.85;87.19;101199.44;5044078;28;20076;-78
2022/07/24 05:24:47;;;;;;;15.32;13.35;;;;;;;19.00;86.39;101200.09;5057834;28;20053;-80
2022/07/24 05:27:14;;;;;;;15.05;12.98;;;;;;;18.98;86.72;101201.31;5061834;28;20056;-80
2022/07/24 05:29:41;;;;;;;14.52;13.18;;;;;;;19.20;85.83;101206.31;5039837;28;20050;-80
2022/07/24 05:32:07;;;;;;;14.55;12.75;;;;;;;20.07;82.75;101224.09;5044491;28;20049;-79
2022/07/24 05:34:34;;;;;;;15.68;12.52;;;;;;;20.72;79.79;101214.44;5062705;28;20111;-80
2022/07/24 05:37:01;;;;;;;13.35;11.95;;;;;;;21.07;77.95;101216.78;5060705;28;20471;-80
2022/07/24 05:39:29;;;;;;;14.00;12.57;;;;;;;21.48;76.32;101205.75;5065925;28;20064;-80
2022/07/24 05:41:55;;;;;;;13.30;11.57;;;;;;;21.78;75.20;101216.63;5065469;28;20045;-81
2022/07/24 05:44:22;;;;;;;14.02;12.15;;;;;;;21.21;75.11;101210.41;5065954;28;20045;-81
2022/07/24 05:46:49;;;;;;;15.15;12.15;;;;;;;20.36;78.42;101216.69;5065765;28;20334;-80
2022/07/24 05:49:15;;;;;;;14.18;11.48;;;;;;;21.36;77.03;101213.59;5065140;28;20049;-82
2022/07/24 05:51:45;;;;;;;12.95;11.75;;;;;;;21.46;75.15;101210.47;5066593;28;20052;-80
2022/07/24 05:54:14;;;;;;;13.60;12.05;;;;;;;20.73;77.51;101216.06;5063545;28;20102;-81
2022/07/24 05:56:42;;;;;;;12.35;11.15;;;;;;;21.30;76.50;101221.59;5064499;28;20073;-80
2022/07/24 05:59:08;;;;;;;12.55;11.38;;;;;;;21.99;74.37;101212.78;5045978;28;20049;-80
2022/07/24 06:01:35;;;;;;;12.88;11.63;;;;;;;22.49;71.73;101224.25;5037664;28;20057;-78
2022/07/24 06:04:02;;;;;;;12.13;10.93;;;;;;;23.30;70.41;101225.81;5044591;28;20053;-81
2022/07/24 06:06:29;;;;;;;13.20;10.93;;;;;;;24.01;67.62;101223.19;5035349;28;20470;-79
2022/07/24 06:08:57;;;;;;;11.90;10.70;;;;;;;24.90;63.25;101237.25;5042547;28;20128;-79
2022/07/24 06:11:24;;;;;;;11.05;10.00;;;;;;;25.22;62.52;101239.50;5043514;28;20049;-79
2022/07/24 06:13:52;;;;;;;11.60;10.32;;;;;;;25.74;60.95;101229.53;5060346;28;20049;-79
2022/07/24 06:16:20;;;;;;;14.02;9.90;;;;;;;26.32;59.43;101228.34;5065309;28;20052;-79
2022/07/24 06:18:46;;;;;;;12.10;10.73;;;;;;;26.00;59.16;101222.69;5052130;28;20042;-79
2022/07/24 06:21:13;;;;;;;14.30;10.38;;;;;;;25.93;59.14;101227.44;5049678;28;20111;-82
2022/07/24 06:23:40;;;;;;;12.85;10.05;;;;;;;26.67;58.36;101218.09;5064358;28;20424;-82
2022/07/24 06:26:06;;;;;;;11.00;9.75;;;;;;;27.21;56.48;101223.59;5072549;28;20045;-82
2022/07/24 06:28:33;;;;;;;11.50;10.10;;;;;;;27.42;55.87;101232.69;5070658;28;20055;-82
2022/07/24 06:31:01;;;;;;;10.85;9.65;;;;;;;27.53;55.88;101228.22;5071065;28;20084;-81
2022/07/24 06:33:28;;;;;;;12.30;9.40;;;;;;;27.58;55.52;101237.16;5071572;28;20079;-80
2022/07/24 06:35:55;;;;;;;9.90;8.90;;;;;;;28.32;54.39;101225.72;5070809;28;20049;-82
2022/07/24 06:38:24;;;;;;;14.55;9.80;;;;;;;28.49;53.04;101226.34;5049642;28;20076;-82
2022/07/24 06:40:50;;;;;;;11.82;10.15;;;;;;;28.23;53.93;101221.88;5048161;28;20053;-82
2022/07/24 06:43:17;;;;;;;12.45;9.07;;;;;;;28.08;53.68;101220.66;5045124;28;20114;-81
2022/07/24 06:45:47;;;;;;;12.75;10.25;;;;;;;27.99;54.04;101214.13;5044045;28;20080;-81
2022/07/24 06:48:16;;;;;;;10.80;9.70;;;;;;;27.62;54.55;101224.84;5042838;28;20052;-80
2022/07/24 06:50:43;;;;;;;11.18;9.80;;;;;;;27.16;54.69;101223.56;5045230;28;20060;-79
2022/07/24 06:53:10;;;;;;;13.13;9.30;;;;;;;28.02;53.71;101216.31;5048696;28;20092;-81
2022/07/24 06:55:39;;;;;;;11.65;9.70;;;;;;;28.77;51.91;101237.81;5066044;28;20052;-81
2022/07/24 06:58:06;;;;;;;12.43;8.98;;;;;;;29.36;51.94;101236.41;5065943;28;20060;-81
2022/07/24 07:00:32;;;;;;;10.45;8.57;;;;;;;29.94;49.34;101236.22;5066266;28;20076;-80
2022/07/24 07:02:59;;;;;;;11.57;8.57;;;;;;;29.85;48.70;101233.25;5066499;28;20064;-82
2022/07/24 07:05:28;;;;;;;9.75;8.30;;;;;;;30.14;48.18;101235.44;5065711;28;20064;-78
2022/07/24 07:07:54;;;;;;;9.32;8.38;;;;;;;29.80;47.42;101227.84;5063438;28;20069;-80
2022/07/24 07:10:21;;;;;;;13.70;8.48;;;;;;;30.20;46.48;101226.25;5068397;28;20106;-81
2022/07/24 07:12:48;;;;;;;9.90;8.63;;;;;;;30.11;46.39;101231.38;5071576;28;20048;-83
2022/07/24 07:15:14;;;;;;;9.65;8.65;;;;;;;29.60;47.82;101227.84;5067316;28;20072;-82
2022/07/24 07:17:42;;;;;;;11.65;9.18;;;;;;;29.43;48.22;101232.66;5051457;28;20049;-84
2022/07/24 07:20:11;;;;;;;10.35;9.15;;;;;;;29.71;49.43;101224.09;5051897;28;20045;-81
2022/07/24 07:22:45;;;;;;;12.38;8.98;;;;;;;30.07;48.00;101221.41;5054047;28;20073;-83
2022/07/24 07:25:12;;;;;;;11.80;8.25;;;;;;;30.47;47.16;101228.63;5051409;28;20081;-83
2022/07/24 07:27:40;;;;;;;9.65;8.23;;;;;;;30.84;46.63;101228.25;5049958;28;20049;-83
2022/07/24 07:30:07;;;;;;;12.18;8.63;;;;;;;30.82;45.44;101228.50;5051542;28;20064;-82
2022/07/24 07:32:34;;;;;;;10.35;8.07;;;;;;;30.53;46.50;101222.94;5050612;28;20069;-83
2022/07/24 07:35:01;;;;;;;13.15;8.63;;;;;;;29.87;46.61;101228.38;5050437;28;20057;-82
2022/07/24 07:37:28;;;;;;;10.00;9.00;;;;;;;30.79;45.64;101225.56;5050195;28;20482;-81
2022/07/24 07:39:57;;;;;;;9.90;8.32;;;;;;;31.29;45.77;101219.91;5049828;28;20053;-81
2022/07/24 07:42:28;;;;;;;9.73;8.50;;;;;;;31.52;44.81;101218.44;5049678;28;20046;-81
2022/07/24 07:44:57;;;;;;;10.30;8.67;;;;;;;31.19;44.08;101220.00;5049577;28;20045;-81
2022/07/24 07:47:48;;;;;;;10.63;8.82;;;;;;;29.53;47.06;101230.00;5049639;28;20292;-82
2022/07/24 07:50:18;;;;;;;14.25;8.30;;;;;;;30.43;46.82;101220.25;5049091;28;20053;-84
2022/07/24 07:52:45;;;;;;;9.88;8.65;;;;;;;30.37;46.56;101199.75;5048177;28;20476;-82
2022/07/24 07:55:20;;;;;;;11.40;7.95;;;;;;;30.87;45.83;101214.19;5048571;28;20053;-81
2022/07/24 07:57:58;;;;;;;10.32;8.00;;;;;;;30.23;47.48;101212.22;5048752;28;20133;-82
2022/07/24 08:00:27;;;;;;;8.98;7.97;;;;;;;31.66;44.54;101202.38;5048355;28;20057;-80
2022/07/24 08:02:56;;;;;;;11.05;8.65;;;;;;;30.83;45.92;101221.22;5055422;28;20057;-81
2022/07/24 08:05:42;;;;;;;9.23;8.32;;;;;;;31.24;44.61;101225.34;5066512;28;20446;-82
2022/07/24 08:08:15;;;;;;;10.65;8.40;;;;;;;31.09;44.51;101225.44;5067646;28;20437;-81
2022/07/24 08:11:05;;;;;;;9.93;8.68;;;;;;;31.19;44.74;101214.59;5070686;28;20075;-80
2022/07/24 08:14:19;;;;;;;9.25;8.02;;;;;;;31.10;45.15;101210.03;5061386;28;20045;-80
2022/07/24 08:16:46;;;;;;;12.38;8.30;;;;;;;30.88;44.86;101204.97;5054558;28;20509;-80
2022/07/24 08:19:12;;;;;;;9.32;8.32;;;;;;;30.71;45.70;101212.66;5044049;28;20049;-80
2022/07/24 08:21:39;;;;;;;13.27;8.68;;;;;;;31.42;44.35;101212.28;5045430;28;20053;-81
2022/07/24 08:24:07;;;;;;;10.13;7.90;;;;;;;31.58;44.66;101209.19;5045554;28;20069;-80
2022/07/24 08:26:35;;;;;;;9.35;8.32;;;;;;;31.30;44.38;101210.72;5042293;28;20073;-83
2022/07/24 08:29:02;;;;;;;9.05;8.15;;;;;;;31.54;43.71;101215.44;5043804;28;20081;-82
2022/07/24 08:31:29;;;;;;;12.13;8.57;;;;;;;30.89;44.66;101202.00;5043340;28;20057;-83
2022/07/24 08:33:57;;;;;;;9.50;7.65;;;;;;;30.94;46.38;101198.47;5045529;28;20065;-83
2022/07/24 08:36:24;;;;;;;10.10;8.20;;;;;;;30.89;46.52;101187.69;5043758;28;20554;-82
2022/07/24 08:38:51;;;;;;;11.80;8.32;;;;;;;30.11;46.36;101185.50;5043982;28;20080;-80
2022/07/24 08:41:18;;;;;;;11.90;8.35;;;;;;;30.91;44.45;101188.22;5044755;28;20041;-82
2022/07/24 08:43:47;;;;;;;10.57;7.95;;;;;;;31.34;46.06;101206.38;5043160;28;20140;-81
2022/07/24 08:46:16;;;;;;;8.50;7.70;;;;;;;30.84;45.69;101196.63;5046945;28;20041;-83
2022/07/24 08:48:45;;;;;;;9.32;8.23;;;;;;;30.90;45.26;101183.91;5047480;28;20045;-83
2022/07/24 08:51:13;;;;;;;9.43;8.23;;;;;;;30.67;45.97;101186.19;5049959;28;20045;-82
2022/07/24 08:53:40;;;;;;;9.40;7.53;;;;;;;31.98;44.38;101205.34;5051971;28;20101;-82
2022/07/24 08:56:07;;;;;;;8.32;7.43;;;;;;;32.27;43.81;101197.22;5045030;28;20053;-81
2022/07/24 08:58:37;;;;;;;10.70;7.88;;;;;;;31.54;45.20;101186.50;5048065;28;20069;-83
2022/07/24 09:01:05;;;;;;;9.55;7.82;;;;;;;31.95;43.92;101181.56;5043841;28;20061;-83
2022/07/24 09:03:40;;;;;;;8.60;7.65;;;;;;;31.66;44.56;101175.31;5054216;28;20045;-81
2022/07/24 09:06:10;;;;;;;8.95;8.05;;;;;;;29.72;45.33;101166.38;5043842;28;20469;-80
2022/07/24 09:08:36;;;;;;;11.27;7.85;;;;;;;29.29;46.95;101176.56;5045507;28;20049;-79
2022/07/24 09:11:06;;;;;;;11.77;7.93;;;;;;;29.64;47.74;101164.22;5052810;28;20044;-80
2022/07/24 09:16:23;;;;;;;12.60;8.23;;;;;;;31.23;43.94;101169.66;5050760;28;20069;-82
2022/07/24 09:18:51;;;;;;;9.40;7.47;;;;;;;31.61;44.65;101162.63;5059851;28;20056;-81
2022/07/24 09:21:19;;;;;;;8.73;7.10;;;;;;;31.20;44.66;101161.31;5055603;28;20048;-80
2022/07/24 09:23:48;;;;;;;7.88;7.07;;;;;;;31.12;45.08;101159.19;5065882;28;20087;-81
2022/07/24 09:26:15;;;;;;;10.90;7.68;;;;;;;30.60;45.03;101147.84;5064517;28;20063;-81
2022/07/24 09:28:50;;;;;;;11.68;7.60;;;;;;;31.31;43.80;101149.34;5046394;28;20046;-80
2022/07/24 09:31:21;;;;;;;10.32;7.63;;;;;;;30.54;44.36;101138.13;5032478;28;20045;-80
2022/07/24 09:33:47;;;;;;;10.13;7.22;;;;;;;31.30;44.41;101143.13;5041359;28;20057;-80
2022/07/24 09:36:16;;;;;;;10.57;7.38;;;;;;;31.39;44.67;101150.63;5041394;28;20053;-81
2022/07/24 09:38:48;;;;;;;8.20;7.40;;;;;;;31.07;44.24;101143.81;5041043;28;20056;-80
2022/07/24 09:41:20;;;;;;;;;;;;;;;31.59;43.47;101142.38;5042546;28;20072;-81
2022/07/24 09:43:56;;;;;;;9.60;7.32;;;;;;;30.85;43.95;101138.81;5048397;28;19928;-81
2022/07/24 09:46:25;;;;;;;9.13;7.07;;;;;;;31.51;42.93;101134.84;5042529;28;20077;-80
2022/07/24 09:48:54;;;;;;;8.32;7.43;;;;;;;31.56;43.74;101137.53;5038796;28;20061;-82
2022/07/24 09:51:22;;;;;;;10.70;7.63;;;;;;;31.41;43.64;101138.44;5041151;28;20045;-80
2022/07/24 09:53:54;;;;;;;8.68;7.75;;;;;;;31.13;43.55;101126.50;5047912;28;20077;-81
2022/07/24 09:56:22;;;;;;;12.57;7.32;;;;;;;30.96;43.47;101134.16;5042522;28;20033;-80
2022/07/24 09:58:51;;;;;;;8.45;7.40;;;;;;;31.22;43.94;101127.50;5043617;28;20049;-80
2022/07/24 10:01:20;;;;;;;9.18;7.88;;;;;;;31.04;43.47;101114.63;5045671;28;20053;-82
2022/07/24 10:03:51;;;;;;;10.15;7.57;;;;;;;30.66;44.80;101125.13;5046792;28;20065;-79
2022/07/24 10:06:21;;;;;;;9.57;7.57;;;;;;;30.77;44.49;101116.97;5044889;28;20053;-79
2022/07/24 10:08:51;;;;;;;9.77;7.35;;;;;;;30.77;44.99;101108.84;5046372;28;20060;-79
2022/07/24 10:11:21;;;;;;;10.73;7.47;;;;;;;31.02;44.76;101108.72;5049310;28;20065;-81
2022/07/24 10:13:49;;;;;;;10.60;7.65;;;;;;;31.13;44.25;101094.06;5042461;28;20089;-82
2022/07/24 10:16:31;;;;;;;9.57;7.93;;;;;;;31.27;43.38;101107.72;5041823;28;20045;-82
2022/07/24 10:19:01;;;;;;;10.07;8.48;;;;;;;30.75;43.64;101102.91;5039523;28;20041;-80
2022/07/24 10:21:30;;;;;;;9.18;8.23;;;;;;;30.45;44.41;101099.28;5040132;28;20045;-80
2022/07/24 10:24:31;;;;;;;10.85;7.75;;;;;;;30.73;45.24;101094.28;5045262;28;20037;-81
2022/07/24 10:27:04;;;;;;;14.93;7.85;;;;;;;30.52;44.40;101091.69;5042486;28;20049;-80
2022/07/24 10:29:35;;;;;;;9.75;7.95;;;;;;;30.87;45.27;101087.19;5046061;28;20482;-80
2022/07/24 10:32:02;;;;;;;8.77;7.83;;;;;;;31.10;43.88;101091.91;5044913;28;20045;-81
2022/07/24 10:34:39;;;;;;;11.77;8.23;;;;;;;31.11;45.16;101093.50;5047681;28;20042;-79
2022/07/24 10:37:12;;;;;;;8.52;7.57;;;;;;;30.65;43.61;101091.13;5039456;28;20054;-79
2022/07/24 10:39:58;;;;;;;11.35;7.60;;;;;;;31.01;44.26;101093.59;5047697;28;20037;-85
2022/07/24 10:42:24;;;;;;;11.40;7.63;;;;;;;31.56;44.54;101084.22;5076783;23;20412;-79
2022/07/24 10:45:19;;;;;;;10.38;7.63;;;;;;;31.46;44.17;101089.72;5069981;28;20096;-79
2022/07/24 10:47:46;;;;;;;11.32;7.72;;;;;;;31.75;42.53;101078.91;5032017;28;20544;-81
2022/07/24 10:50:16;;;;;;;8.65;7.20;;;;;;;31.58;42.89;101087.47;5073113;28;20041;-79
2022/07/24 10:52:43;;;;;;;8.05;7.25;;;;;;;31.54;44.67;101069.38;5074850;28;20102;-80
2022/07/24 10:55:24;;;;;;;7.90;7.07;;;;;;;31.70;43.24;101072.75;5069526;28;20076;-78
2022/07/24 10:57:56;;;;;;;7.97;7.18;;;;;;;31.68;42.66;101075.75;5077654;28;20721;-79
2022/07/24 11:00:23;;;;;;;;;;;;;;;31.67;43.65;101074.09;5073908;28;20075;-79
2022/07/24 11:02:57;;;;;;;9.40;8.00;;;;;;;30.87;43.13;101066.38;5077281;28;19982;-81
2022/07/24 11:05:31;;;;;;;12.10;8.23;;;;;;;31.11;43.56;101060.28;5078376;28;20108;-81
2022/07/24 11:08:34;;;;;;;8.15;7.18;;;;;;;31.01;43.75;101058.44;5062336;28;20048;-82
2022/07/24 11:11:07;;;;;;;9.30;7.60;;;;;;;31.12;43.39;101059.19;5078530;28;20429;-81
2022/07/24 11:13:45;;;;;;;9.60;7.13;;;;;;;31.23;43.05;101047.19;5074663;28;20140;-80
2022/07/24 11:16:20;;;;;;;10.95;7.60;;;;;;;31.01;43.79;101050.34;5069735;28;20132;-81
2022/07/24 11:19:20;;;;;;;10.90;7.30;;;;;;;31.33;43.14;101047.91;5068305;28;20132;-80
2022/07/24 11:21:49;;;;;;;8.20;7.35;;;;;;;31.64;42.62;101042.22;5069288;28;20054;-81
2022/07/24 11:24:16;;;;;;;11.07;7.43;;;;;;;31.61;42.14;101049.03;5069984;28;20059;-81
2022/07/24 11:26:47;;;;;;;13.52;7.90;;;;;;;31.28;41.88;101039.84;5067481;28;20056;-77